sensor_id;sensor_type;location;lat;lon;timestamp;P1;durP1;ratioP1;P2;durP2;ratioP2
70126;SDS011;57491;42.694;23.314;2023-09-07T00:02:00;13.38;;;9.48;;
70126;SDS011;57491;42.694;23.314;2023-09-07T00:04:27;15.27;;;9.98;;
70126;SDS011;57491;42.694;23.314;2023-09-07T00:06:54;13.65;;;10.18;;
70126;SDS011;57491;42.694;23.314;2023-09-07T00:09:21;10.75;;;9.13;;
70126;SDS011;57491;42.694;23.314;2023-09-07T00:11:50;10.98;;;9.18;;
70126;SDS011;57491;42.694;23.314;2023-09-07T00:14:17;18.52;;;9.60;;
70126;SDS011;57491;42.694;23.314;2023-09-07T00:16:44;10.45;;;9.35;;
70126;SDS011;57491;42.694;23.314;2023-09-07T00:19:11;13.50;;;9.88;;
70126;SDS011;57491;42.694;23.314;2023-09-07T00:21:38;13.45;;;10.20;;
70126;SDS011;57491;42.694;23.314;2023-09-07T00:24:07;10.38;;;9.13;;
70126;SDS011;57491;42.694;23.314;2023-09-07T00:26:35;12.60;;;9.23;;
70126;SDS011;57491;42.694;23.314;2023-09-07T00:29:04;11.82;;;9.43;;
70126;SDS011;57491;42.694;23.314;2023-09-07T00:31:31;13.90;;;10.10;;
70126;SDS011;57491;42.694;23.314;2023-09-07T00:33:58;15.32;;;10.10;;
70126;SDS011;57491;42.694;23.314;2023-09-07T00:36:26;12.98;;;10.70;;
70126;SDS011;57491;42.694;23.314;2023-09-07T00:38:53;13.55;;;10.90;;
70126;SDS011;57491;42.694;23.314;2023-09-07T00:41:20;15.48;;;11.05;;
70126;SDS011;57491;42.694;23.314;2023-09-07T00:43:47;15.18;;;10.48;;
70126;SDS011;57491;42.694;23.314;2023-09-07T00:46:15;13.48;;;10.77;;
70126;SDS011;57491;42.694;23.314;2023-09-07T00:48:43;12.90;;;10.95;;
70126;SDS011;57491;42.694;23.314;2023-09-07T00:51:10;13.93;;;10.82;;
70126;SDS011;57491;42.694;23.314;2023-09-07T00:53:37;12.85;;;10.80;;
70126;SDS011;57491;42.694;23.314;2023-09-07T00:56:04;15.27;;;11.15;;
70126;SDS011;57491;42.694;23.314;2023-09-07T00:58:33;13.48;;;10.25;;
70126;SDS011;57491;42.694;23.314;2023-09-07T01:01:00;12.30;;;10.55;;
70126;SDS011;57491;42.694;23.314;2023-09-07T01:03:29;13.95;;;11.38;;
70126;SDS011;57491;42.694;23.314;2023-09-07T01:05:58;13.05;;;11.13;;
70126;SDS011;57491;42.694;23.314;2023-09-07T01:08:31;15.35;;;10.75;;
70126;SDS011;57491;42.694;23.314;2023-09-07T01:11:12;11.88;;;9.95;;
70126;SDS011;57491;42.694;23.314;2023-09-07T01:13:40;12.13;;;10.82;;
70126;SDS011;57491;42.694;23.314;2023-09-07T01:16:07;16.90;;;11.40;;
70126;SDS011;57491;42.694;23.314;2023-09-07T01:18:37;14.95;;;11.43;;
70126;SDS011;57491;42.694;23.314;2023-09-07T01:21:05;15.35;;;11.18;;
70126;SDS011;57491;42.694;23.314;2023-09-07T01:23:35;18.80;;;11.10;;
70126;SDS011;57491;42.694;23.314;2023-09-07T01:26:03;12.48;;;11.18;;
70126;SDS011;57491;42.694;23.314;2023-09-07T01:28:33;13.70;;;11.88;;
70126;SDS011;57491;42.694;23.314;2023-09-07T01:31:02;20.10;;;12.48;;
70126;SDS011;57491;42.694;23.314;2023-09-07T01:33:29;18.88;;;11.88;;
70126;SDS011;57491;42.694;23.314;2023-09-07T01:35:57;17.92;;;12.38;;
70126;SDS011;57491;42.694;23.314;2023-09-07T01:38:24;17.23;;;12.55;;
70126;SDS011;57491;42.694;23.314;2023-09-07T01:40:52;16.90;;;13.90;;
70126;SDS011;57491;42.694;23.314;2023-09-07T01:43:21;18.05;;;12.82;;
70126;SDS011;57491;42.694;23.314;2023-09-07T01:45:48;22.17;;;12.68;;
70126;SDS011;57491;42.694;23.314;2023-09-07T01:48:15;15.52;;;13.20;;
70126;SDS011;57491;42.694;23.314;2023-09-07T01:50:42;16.10;;;13.50;;
70126;SDS011;57491;42.694;23.314;2023-09-07T01:53:09;15.90;;;13.35;;
70126;SDS011;57491;42.694;23.314;2023-09-07T01:55:36;19.73;;;12.93;;
70126;SDS011;57491;42.694;23.314;2023-09-07T01:58:05;18.98;;;13.38;;
70126;SDS011;57491;42.694;23.314;2023-09-07T02:00:31;17.50;;;12.70;;
70126;SDS011;57491;42.694;23.314;2023-09-07T02:03:03;16.83;;;13.98;;
70126;SDS011;57491;42.694;23.314;2023-09-07T02:05:30;17.50;;;13.98;;
70126;SDS011;57491;42.694;23.314;2023-09-07T02:07:58;19.63;;;13.18;;
70126;SDS011;57491;42.694;23.314;2023-09-07T02:10:25;18.08;;;13.40;;
70126;SDS011;57491;42.694;23.314;2023-09-07T02:12:52;19.02;;;14.13;;
70126;SDS011;57491;42.694;23.314;2023-09-07T02:15:21;17.65;;;13.90;;
70126;SDS011;57491;42.694;23.314;2023-09-07T02:17:48;17.13;;;14.10;;
70126;SDS011;57491;42.694;23.314;2023-09-07T02:22:44;18.10;;;14.60;;
70126;SDS011;57491;42.694;23.314;2023-09-07T02:25:11;22.30;;;14.57;;
70126;SDS011;57491;42.694;23.314;2023-09-07T02:27:38;16.00;;;14.10;;
70126;SDS011;57491;42.694;23.314;2023-09-07T02:30:05;17.23;;;13.70;;
70126;SDS011;57491;42.694;23.314;2023-09-07T02:32:35;19.23;;;14.63;;
70126;SDS011;57491;42.694;23.314;2023-09-07T02:35:02;18.10;;;14.38;;
70126;SDS011;57491;42.694;23.314;2023-09-07T02:37:29;20.40;;;15.48;;
70126;SDS011;57491;42.694;23.314;2023-09-07T02:39:56;21.47;;;15.13;;
70126;SDS011;57491;42.694;23.314;2023-09-07T02:42:24;20.27;;;14.95;;
70126;SDS011;57491;42.694;23.314;2023-09-07T02:44:51;18.60;;;15.20;;
70126;SDS011;57491;42.694;23.314;2023-09-07T02:47:19;18.00;;;15.40;;
70126;SDS011;57491;42.694;23.314;2023-09-07T02:49:48;20.73;;;14.90;;
70126;SDS011;57491;42.694;23.314;2023-09-07T02:52:15;18.90;;;14.55;;
70126;SDS011;57491;42.694;23.314;2023-09-07T02:54:42;18.75;;;15.43;;
70126;SDS011;57491;42.694;23.314;2023-09-07T02:57:09;18.15;;;14.27;;
70126;SDS011;57491;42.694;23.314;2023-09-07T02:59:37;20.20;;;15.88;;
70126;SDS011;57491;42.694;23.314;2023-09-07T03:02:05;18.38;;;14.55;;
70126;SDS011;57491;42.694;23.314;2023-09-07T03:04:32;20.35;;;15.23;;
70126;SDS011;57491;42.694;23.314;2023-09-07T03:07:01;17.80;;;15.68;;
70126;SDS011;57491;42.694;23.314;2023-09-07T03:09:29;21.95;;;14.68;;
70126;SDS011;57491;42.694;23.314;2023-09-07T03:11:56;23.98;;;15.68;;
70126;SDS011;57491;42.694;23.314;2023-09-07T03:17:23;18.33;;;14.93;;
70126;SDS011;57491;42.694;23.314;2023-09-07T03:19:51;19.50;;;15.05;;
70126;SDS011;57491;42.694;23.314;2023-09-07T03:22:19;18.92;;;14.88;;
70126;SDS011;57491;42.694;23.314;2023-09-07T03:24:47;20.13;;;16.20;;
70126;SDS011;57491;42.694;23.314;2023-09-07T03:27:16;19.42;;;15.75;;
70126;SDS011;57491;42.694;23.314;2023-09-07T03:29:44;21.15;;;15.73;;
70126;SDS011;57491;42.694;23.314;2023-09-07T03:32:11;18.67;;;15.75;;
70126;SDS011;57491;42.694;23.314;2023-09-07T03:34:38;25.70;;;16.20;;
70126;SDS011;57491;42.694;23.314;2023-09-07T03:37:05;22.83;;;17.85;;
70126;SDS011;57491;42.694;23.314;2023-09-07T03:39:38;22.67;;;17.23;;
70126;SDS011;57491;42.694;23.314;2023-09-07T03:42:05;20.42;;;17.35;;
70126;SDS011;57491;42.694;23.314;2023-09-07T03:44:32;20.90;;;16.15;;
70126;SDS011;57491;42.694;23.314;2023-09-07T03:47:00;20.08;;;16.20;;
70126;SDS011;57491;42.694;23.314;2023-09-07T03:49:27;20.50;;;17.50;;
70126;SDS011;57491;42.694;23.314;2023-09-07T03:51:54;22.52;;;16.95;;
70126;SDS011;57491;42.694;23.314;2023-09-07T03:54:21;21.70;;;16.63;;
70126;SDS011;57491;42.694;23.314;2023-09-07T03:56:50;22.40;;;17.27;;
70126;SDS011;57491;42.694;23.314;2023-09-07T03:59:17;24.63;;;17.08;;
70126;SDS011;57491;42.694;23.314;2023-09-07T04:01:44;21.95;;;17.27;;
70126;SDS011;57491;42.694;23.314;2023-09-07T04:04:11;21.53;;;17.30;;
70126;SDS011;57491;42.694;23.314;2023-09-07T04:06:38;24.55;;;17.20;;
70126;SDS011;57491;42.694;23.314;2023-09-07T04:09:05;24.02;;;18.15;;
70126;SDS011;57491;42.694;23.314;2023-09-07T04:11:32;27.15;;;18.58;;
70126;SDS011;57491;42.694;23.314;2023-09-07T04:14:00;20.27;;;16.77;;
70126;SDS011;57491;42.694;23.314;2023-09-07T04:16:28;28.30;;;18.27;;
70126;SDS011;57491;42.694;23.314;2023-09-07T04:21:23;22.60;;;17.13;;
70126;SDS011;57491;42.694;23.314;2023-09-07T04:23:50;23.75;;;18.50;;
70126;SDS011;57491;42.694;23.314;2023-09-07T04:26:17;27.05;;;19.58;;
70126;SDS011;57491;42.694;23.314;2023-09-07T04:28:44;24.92;;;18.77;;
70126;SDS011;57491;42.694;23.314;2023-09-07T04:31:12;21.08;;;18.02;;
70126;SDS011;57491;42.694;23.314;2023-09-07T04:33:40;21.92;;;17.58;;
70126;SDS011;57491;42.694;23.314;2023-09-07T04:36:07;21.98;;;17.48;;
70126;SDS011;57491;42.694;23.314;2023-09-07T04:38:35;22.83;;;17.25;;
70126;SDS011;57491;42.694;23.314;2023-09-07T04:41:06;24.92;;;18.38;;
70126;SDS011;57491;42.694;23.314;2023-09-07T04:43:33;21.13;;;18.27;;
70126;SDS011;57491;42.694;23.314;2023-09-07T04:46:01;26.25;;;19.23;;
70126;SDS011;57491;42.694;23.314;2023-09-07T04:48:29;22.58;;;18.63;;
70126;SDS011;57491;42.694;23.314;2023-09-07T04:50:57;23.17;;;18.70;;
70126;SDS011;57491;42.694;23.314;2023-09-07T04:53:24;24.42;;;19.42;;
70126;SDS011;57491;42.694;23.314;2023-09-07T04:55:56;23.77;;;18.35;;
70126;SDS011;57491;42.694;23.314;2023-09-07T04:58:33;23.80;;;17.70;;
70126;SDS011;57491;42.694;23.314;2023-09-07T05:01:01;22.75;;;18.02;;
70126;SDS011;57491;42.694;23.314;2023-09-07T05:03:31;23.65;;;16.55;;
70126;SDS011;57491;42.694;23.314;2023-09-07T05:05:59;21.58;;;17.40;;
70126;SDS011;57491;42.694;23.314;2023-09-07T05:08:27;21.75;;;15.93;;
70126;SDS011;57491;42.694;23.314;2023-09-07T05:10:54;24.27;;;15.60;;
70126;SDS011;57491;42.694;23.314;2023-09-07T05:13:23;23.90;;;16.60;;
70126;SDS011;57491;42.694;23.314;2023-09-07T05:15:50;22.40;;;16.67;;
70126;SDS011;57491;42.694;23.314;2023-09-07T05:18:19;23.02;;;17.55;;
70126;SDS011;57491;42.694;23.314;2023-09-07T05:20:48;22.92;;;16.52;;
70126;SDS011;57491;42.694;23.314;2023-09-07T05:23:17;24.20;;;17.73;;
70126;SDS011;57491;42.694;23.314;2023-09-07T05:25:44;21.05;;;16.38;;
70126;SDS011;57491;42.694;23.314;2023-09-07T05:28:12;20.20;;;16.48;;
70126;SDS011;57491;42.694;23.314;2023-09-07T05:33:07;21.58;;;16.20;;
70126;SDS011;57491;42.694;23.314;2023-09-07T05:35:35;21.95;;;16.38;;
70126;SDS011;57491;42.694;23.314;2023-09-07T05:38:04;20.73;;;15.07;;
70126;SDS011;57491;42.694;23.314;2023-09-07T05:40:33;21.52;;;14.55;;
70126;SDS011;57491;42.694;23.314;2023-09-07T05:43:01;19.77;;;15.38;;
70126;SDS011;57491;42.694;23.314;2023-09-07T05:47:56;18.40;;;15.13;;
70126;SDS011;57491;42.694;23.314;2023-09-07T05:50:23;22.48;;;16.70;;
70126;SDS011;57491;42.694;23.314;2023-09-07T05:52:50;18.27;;;16.23;;
70126;SDS011;57491;42.694;23.314;2023-09-07T05:55:19;21.98;;;15.10;;
70126;SDS011;57491;42.694;23.314;2023-09-07T05:57:46;21.63;;;15.38;;
70126;SDS011;57491;42.694;23.314;2023-09-07T06:00:14;21.55;;;15.95;;
70126;SDS011;57491;42.694;23.314;2023-09-07T06:02:42;22.73;;;15.40;;
70126;SDS011;57491;42.694;23.314;2023-09-07T06:05:11;18.60;;;15.43;;
70126;SDS011;57491;42.694;23.314;2023-09-07T06:07:38;23.23;;;16.92;;
70126;SDS011;57491;42.694;23.314;2023-09-07T06:10:05;20.17;;;15.85;;
70126;SDS011;57491;42.694;23.314;2023-09-07T06:12:34;19.73;;;15.95;;
70126;SDS011;57491;42.694;23.314;2023-09-07T06:15:02;24.30;;;15.85;;
70126;SDS011;57491;42.694;23.314;2023-09-07T06:17:29;21.30;;;15.98;;
70126;SDS011;57491;42.694;23.314;2023-09-07T06:19:57;17.65;;;14.75;;
70126;SDS011;57491;42.694;23.314;2023-09-07T06:22:24;17.08;;;12.23;;
70126;SDS011;57491;42.694;23.314;2023-09-07T06:24:51;18.35;;;12.90;;
70126;SDS011;57491;42.694;23.314;2023-09-07T06:27:18;16.65;;;11.65;;
70126;SDS011;57491;42.694;23.314;2023-09-07T06:29:47;16.15;;;12.45;;
70126;SDS011;57491;42.694;23.314;2023-09-07T06:32:14;19.45;;;13.35;;
70126;SDS011;57491;42.694;23.314;2023-09-07T06:34:41;16.75;;;11.75;;
70126;SDS011;57491;42.694;23.314;2023-09-07T06:37:08;15.90;;;11.73;;
70126;SDS011;57491;42.694;23.314;2023-09-07T06:39:36;13.60;;;11.35;;
70126;SDS011;57491;42.694;23.314;2023-09-07T06:42:03;17.60;;;11.90;;
70126;SDS011;57491;42.694;23.314;2023-09-07T06:47:01;16.73;;;11.55;;
70126;SDS011;57491;42.694;23.314;2023-09-07T06:49:29;15.23;;;11.30;;
70126;SDS011;57491;42.694;23.314;2023-09-07T06:51:56;12.90;;;10.93;;
70126;SDS011;57491;42.694;23.314;2023-09-07T06:54:23;16.95;;;11.15;;
70126;SDS011;57491;42.694;23.314;2023-09-07T06:56:50;15.68;;;10.70;;
70126;SDS011;57491;42.694;23.314;2023-09-07T06:59:18;15.20;;;11.48;;
70126;SDS011;57491;42.694;23.314;2023-09-07T07:01:45;16.55;;;11.73;;
70126;SDS011;57491;42.694;23.314;2023-09-07T07:04:13;14.07;;;10.40;;
70126;SDS011;57491;42.694;23.314;2023-09-07T07:06:40;12.07;;;10.00;;
70126;SDS011;57491;42.694;23.314;2023-09-07T07:09:07;14.00;;;10.25;;
70126;SDS011;57491;42.694;23.314;2023-09-07T07:11:36;14.07;;;10.32;;
70126;SDS011;57491;42.694;23.314;2023-09-07T07:14:04;20.42;;;13.95;;
70126;SDS011;57491;42.694;23.314;2023-09-07T07:16:32;14.00;;;10.15;;
70126;SDS011;57491;42.694;23.314;2023-09-07T07:18:59;14.90;;;11.18;;
70126;SDS011;57491;42.694;23.314;2023-09-07T07:21:28;15.60;;;10.25;;
70126;SDS011;57491;42.694;23.314;2023-09-07T07:23:55;16.85;;;9.98;;
70126;SDS011;57491;42.694;23.314;2023-09-07T07:26:22;13.80;;;9.60;;
70126;SDS011;57491;42.694;23.314;2023-09-07T07:28:49;12.63;;;10.07;;
70126;SDS011;57491;42.694;23.314;2023-09-07T07:31:16;13.95;;;10.48;;
70126;SDS011;57491;42.694;23.314;2023-09-07T07:33:43;18.08;;;9.45;;
70126;SDS011;57491;42.694;23.314;2023-09-07T07:36:10;13.90;;;9.13;;
70126;SDS011;57491;42.694;23.314;2023-09-07T07:38:38;13.05;;;9.30;;
70126;SDS011;57491;42.694;23.314;2023-09-07T07:41:06;15.20;;;12.85;;
70126;SDS011;57491;42.694;23.314;2023-09-07T07:43:33;16.02;;;9.95;;
70126;SDS011;57491;42.694;23.314;2023-09-07T07:46:00;14.73;;;9.57;;
70126;SDS011;57491;42.694;23.314;2023-09-07T07:48:27;13.13;;;9.23;;
70126;SDS011;57491;42.694;23.314;2023-09-07T07:50:55;12.30;;;10.40;;
70126;SDS011;57491;42.694;23.314;2023-09-07T07:53:22;10.32;;;8.15;;
70126;SDS011;57491;42.694;23.314;2023-09-07T07:55:50;10.13;;;8.70;;
70126;SDS011;57491;42.694;23.314;2023-09-07T07:58:18;13.00;;;8.70;;
70126;SDS011;57491;42.694;23.314;2023-09-07T08:00:45;10.95;;;7.85;;
70126;SDS011;57491;42.694;23.314;2023-09-07T08:03:14;11.13;;;8.93;;
70126;SDS011;57491;42.694;23.314;2023-09-07T08:05:41;12.63;;;8.02;;
70126;SDS011;57491;42.694;23.314;2023-09-07T08:08:08;12.77;;;8.70;;
70126;SDS011;57491;42.694;23.314;2023-09-07T08:15:31;13.05;;;8.52;;
70126;SDS011;57491;42.694;23.314;2023-09-07T08:17:59;11.05;;;7.65;;
70126;SDS011;57491;42.694;23.314;2023-09-07T08:20:26;7.97;;;7.18;;
70126;SDS011;57491;42.694;23.314;2023-09-07T08:22:55;10.68;;;7.60;;
70126;SDS011;57491;42.694;23.314;2023-09-07T08:25:23;11.70;;;8.88;;
70126;SDS011;57491;42.694;23.314;2023-09-07T08:27:51;8.60;;;7.60;;
70126;SDS011;57491;42.694;23.314;2023-09-07T08:30:22;11.82;;;9.32;;
70126;SDS011;57491;42.694;23.314;2023-09-07T08:32:51;9.13;;;7.65;;
70126;SDS011;57491;42.694;23.314;2023-09-07T08:35:18;13.38;;;7.85;;
70126;SDS011;57491;42.694;23.314;2023-09-07T08:37:45;10.25;;;7.57;;
70126;SDS011;57491;42.694;23.314;2023-09-07T08:40:12;7.43;;;6.60;;
70126;SDS011;57491;42.694;23.314;2023-09-07T08:42:42;10.27;;;7.90;;
70126;SDS011;57491;42.694;23.314;2023-09-07T08:45:09;7.63;;;6.90;;
70126;SDS011;57491;42.694;23.314;2023-09-07T08:47:43;10.15;;;7.90;;
70126;SDS011;57491;42.694;23.314;2023-09-07T08:50:12;11.75;;;7.95;;
70126;SDS011;57491;42.694;23.314;2023-09-07T08:52:40;9.18;;;7.65;;
70126;SDS011;57491;42.694;23.314;2023-09-07T08:55:08;12.30;;;9.45;;
70126;SDS011;57491;42.694;23.314;2023-09-07T08:57:36;10.50;;;8.95;;
70126;SDS011;57491;42.694;23.314;2023-09-07T09:00:04;13.20;;;9.77;;
70126;SDS011;57491;42.694;23.314;2023-09-07T09:02:39;10.30;;;8.30;;
70126;SDS011;57491;42.694;23.314;2023-09-07T09:05:26;8.82;;;7.93;;
70126;SDS011;57491;42.694;23.314;2023-09-07T09:08:05;10.77;;;8.00;;
70126;SDS011;57491;42.694;23.314;2023-09-07T09:10:33;12.07;;;7.63;;
70126;SDS011;57491;42.694;23.314;2023-09-07T09:13:00;8.45;;;7.43;;
70126;SDS011;57491;42.694;23.314;2023-09-07T09:15:27;9.13;;;7.18;;
70126;SDS011;57491;42.694;23.314;2023-09-07T09:17:54;9.57;;;7.70;;
70126;SDS011;57491;42.694;23.314;2023-09-07T09:20:22;10.88;;;8.70;;
70126;SDS011;57491;42.694;23.314;2023-09-07T09:22:52;7.97;;;7.05;;
70126;SDS011;57491;42.694;23.314;2023-09-07T09:25:19;11.13;;;8.50;;
70126;SDS011;57491;42.694;23.314;2023-09-07T09:27:47;8.82;;;7.53;;
70126;SDS011;57491;42.694;23.314;2023-09-07T09:30:14;10.25;;;7.63;;
70126;SDS011;57491;42.694;23.314;2023-09-07T09:32:42;9.57;;;7.65;;
70126;SDS011;57491;42.694;23.314;2023-09-07T09:35:09;7.25;;;6.28;;
70126;SDS011;57491;42.694;23.314;2023-09-07T09:37:44;8.25;;;7.10;;
70126;SDS011;57491;42.694;23.314;2023-09-07T09:40:14;7.28;;;6.53;;
70126;SDS011;57491;42.694;23.314;2023-09-07T09:42:42;8.65;;;6.57;;
70126;SDS011;57491;42.694;23.314;2023-09-07T09:45:10;8.43;;;7.50;;
70126;SDS011;57491;42.694;23.314;2023-09-07T09:47:38;10.68;;;7.47;;
70126;SDS011;57491;42.694;23.314;2023-09-07T09:50:07;9.00;;;7.35;;
70126;SDS011;57491;42.694;23.314;2023-09-07T09:52:35;7.50;;;6.75;;
70126;SDS011;57491;42.694;23.314;2023-09-07T09:55:06;9.63;;;6.82;;
70126;SDS011;57491;42.694;23.314;2023-09-07T09:57:39;8.95;;;6.25;;
70126;SDS011;57491;42.694;23.314;2023-09-07T10:00:07;8.57;;;6.88;;
70126;SDS011;57491;42.694;23.314;2023-09-07T10:02:53;11.48;;;7.15;;
70126;SDS011;57491;42.694;23.314;2023-09-07T10:05:26;13.30;;;8.15;;
70126;SDS011;57491;42.694;23.314;2023-09-07T10:07:59;15.90;;;7.57;;
70126;SDS011;57491;42.694;23.314;2023-09-07T10:10:34;8.77;;;7.05;;
70126;SDS011;57491;42.694;23.314;2023-09-07T10:13:04;9.02;;;7.22;;
70126;SDS011;57491;42.694;23.314;2023-09-07T10:15:32;9.60;;;8.13;;
70126;SDS011;57491;42.694;23.314;2023-09-07T10:18:05;11.20;;;7.55;;
70126;SDS011;57491;42.694;23.314;2023-09-07T10:20:46;7.95;;;6.65;;
70126;SDS011;57491;42.694;23.314;2023-09-07T10:23:15;11.75;;;7.53;;
70126;SDS011;57491;42.694;23.314;2023-09-07T10:25:42;8.57;;;7.50;;
70126;SDS011;57491;42.694;23.314;2023-09-07T10:28:23;11.02;;;7.35;;
70126;SDS011;57491;42.694;23.314;2023-09-07T10:30:57;10.32;;;8.18;;
70126;SDS011;57491;42.694;23.314;2023-09-07T10:33:27;9.63;;;7.10;;
70126;SDS011;57491;42.694;23.314;2023-09-07T10:36:21;6.85;;;6.15;;
70126;SDS011;57491;42.694;23.314;2023-09-07T10:38:51;8.57;;;6.55;;
70126;SDS011;57491;42.694;23.314;2023-09-07T10:41:19;10.02;;;7.93;;
70126;SDS011;57491;42.694;23.314;2023-09-07T10:43:49;9.02;;;7.07;;
70126;SDS011;57491;42.694;23.314;2023-09-07T10:46:18;11.60;;;7.82;;
70126;SDS011;57491;42.694;23.314;2023-09-07T10:48:48;8.88;;;6.80;;
70126;SDS011;57491;42.694;23.314;2023-09-07T10:51:15;13.55;;;7.90;;
70126;SDS011;57491;42.694;23.314;2023-09-07T10:53:43;7.97;;;6.75;;
70126;SDS011;57491;42.694;23.314;2023-09-07T10:56:10;7.90;;;6.28;;
70126;SDS011;57491;42.694;23.314;2023-09-07T10:58:37;9.73;;;7.10;;
70126;SDS011;57491;42.694;23.314;2023-09-07T11:01:08;12.32;;;7.65;;
70126;SDS011;57491;42.694;23.314;2023-09-07T11:03:36;12.27;;;7.03;;
70126;SDS011;57491;42.694;23.314;2023-09-07T11:06:05;8.90;;;7.90;;
70126;SDS011;57491;42.694;23.314;2023-09-07T11:08:34;13.18;;;6.47;;
70126;SDS011;57491;42.694;23.314;2023-09-07T11:11:01;10.25;;;6.22;;
70126;SDS011;57491;42.694;23.314;2023-09-07T11:13:29;9.27;;;7.57;;
70126;SDS011;57491;42.694;23.314;2023-09-07T11:18:26;10.50;;;5.90;;
70126;SDS011;57491;42.694;23.314;2023-09-07T11:20:53;7.95;;;6.00;;
70126;SDS011;57491;42.694;23.314;2023-09-07T11:23:21;10.38;;;5.65;;
70126;SDS011;57491;42.694;23.314;2023-09-07T11:25:49;7.55;;;6.30;;
70126;SDS011;57491;42.694;23.314;2023-09-07T11:28:17;7.13;;;5.93;;
70126;SDS011;57491;42.694;23.314;2023-09-07T11:30:51;12.88;;;6.28;;
70126;SDS011;57491;42.694;23.314;2023-09-07T11:33:19;7.43;;;6.40;;
70126;SDS011;57491;42.694;23.314;2023-09-07T11:35:48;7.30;;;5.60;;
70126;SDS011;57491;42.694;23.314;2023-09-07T11:38:16;8.93;;;6.28;;
70126;SDS011;57491;42.694;23.314;2023-09-07T11:40:44;8.50;;;5.65;;
70126;SDS011;57491;42.694;23.314;2023-09-07T11:43:11;10.07;;;6.72;;
70126;SDS011;57491;42.694;23.314;2023-09-07T11:45:39;7.35;;;6.63;;
70126;SDS011;57491;42.694;23.314;2023-09-07T11:50:34;7.47;;;6.63;;
70126;SDS011;57491;42.694;23.314;2023-09-07T11:53:04;7.13;;;5.78;;
70126;SDS011;57491;42.694;23.314;2023-09-07T11:55:31;7.18;;;5.63;;
70126;SDS011;57491;42.694;23.314;2023-09-07T12:00:25;7.50;;;5.80;;
70126;SDS011;57491;42.694;23.314;2023-09-07T12:02:52;6.97;;;6.13;;
70126;SDS011;57491;42.694;23.314;2023-09-07T12:05:19;8.13;;;6.45;;
70126;SDS011;57491;42.694;23.314;2023-09-07T12:07:46;7.18;;;5.97;;
70126;SDS011;57491;42.694;23.314;2023-09-07T12:10:15;9.38;;;6.05;;
70126;SDS011;57491;42.694;23.314;2023-09-07T12:12:43;11.35;;;6.03;;
70126;SDS011;57491;42.694;23.314;2023-09-07T12:15:10;7.40;;;5.05;;
70126;SDS011;57491;42.694;23.314;2023-09-07T12:17:37;9.38;;;6.10;;
70126;SDS011;57491;42.694;23.314;2023-09-07T12:22:36;8.55;;;5.30;;
70126;SDS011;57491;42.694;23.314;2023-09-07T12:25:04;7.30;;;5.70;;
70126;SDS011;57491;42.694;23.314;2023-09-07T12:27:35;9.48;;;5.00;;
70126;SDS011;57491;42.694;23.314;2023-09-07T12:30:02;8.93;;;5.72;;
70126;SDS011;57491;42.694;23.314;2023-09-07T12:32:33;9.02;;;6.03;;
70126;SDS011;57491;42.694;23.314;2023-09-07T12:35:01;10.43;;;5.93;;
70126;SDS011;57491;42.694;23.314;2023-09-07T12:37:28;8.43;;;5.78;;
70126;SDS011;57491;42.694;23.314;2023-09-07T12:40:39;8.20;;;5.90;;
70126;SDS011;57491;42.694;23.314;2023-09-07T12:43:07;7.70;;;4.85;;
70126;SDS011;57491;42.694;23.314;2023-09-07T12:45:53;6.78;;;5.88;;
70126;SDS011;57491;42.694;23.314;2023-09-07T12:48:20;8.13;;;5.40;;
70126;SDS011;57491;42.694;23.314;2023-09-07T12:50:47;5.90;;;4.70;;
70126;SDS011;57491;42.694;23.314;2023-09-07T12:53:14;6.00;;;5.40;;
70126;SDS011;57491;42.694;23.314;2023-09-07T12:55:41;6.82;;;5.45;;
70126;SDS011;57491;42.694;23.314;2023-09-07T12:58:10;11.95;;;5.05;;
70126;SDS011;57491;42.694;23.314;2023-09-07T13:00:37;6.88;;;5.43;;
70126;SDS011;57491;42.694;23.314;2023-09-07T13:03:04;9.27;;;5.25;;
70126;SDS011;57491;42.694;23.314;2023-09-07T13:08:03;6.35;;;5.43;;
70126;SDS011;57491;42.694;23.314;2023-09-07T13:10:31;7.63;;;5.93;;
70126;SDS011;57491;42.694;23.314;2023-09-07T13:12:59;7.68;;;4.97;;
70126;SDS011;57491;42.694;23.314;2023-09-07T13:15:27;6.70;;;5.53;;
70126;SDS011;57491;42.694;23.314;2023-09-07T13:17:55;5.82;;;5.22;;
70126;SDS011;57491;42.694;23.314;2023-09-07T13:20:22;9.15;;;4.90;;
70126;SDS011;57491;42.694;23.314;2023-09-07T13:23:26;8.70;;;5.80;;
70126;SDS011;57491;42.694;23.314;2023-09-07T13:25:54;6.15;;;4.60;;
70126;SDS011;57491;42.694;23.314;2023-09-07T13:28:21;9.43;;;5.82;;
70126;SDS011;57491;42.694;23.314;2023-09-07T13:33:17;7.25;;;5.43;;
70126;SDS011;57491;42.694;23.314;2023-09-07T13:35:45;7.30;;;6.00;;
70126;SDS011;57491;42.694;23.314;2023-09-07T13:38:12;7.28;;;4.53;;
70126;SDS011;57491;42.694;23.314;2023-09-07T13:43:06;5.90;;;4.78;;
70126;SDS011;57491;42.694;23.314;2023-09-07T13:45:33;5.55;;;5.03;;
70126;SDS011;57491;42.694;23.314;2023-09-07T13:48:02;5.47;;;4.50;;
70126;SDS011;57491;42.694;23.314;2023-09-07T13:50:29;6.15;;;5.03;;
70126;SDS011;57491;42.694;23.314;2023-09-07T13:52:56;9.95;;;5.70;;
70126;SDS011;57491;42.694;23.314;2023-09-07T13:55:23;7.35;;;5.13;;
70126;SDS011;57491;42.694;23.314;2023-09-07T14:00:17;9.60;;;5.57;;
70126;SDS011;57491;42.694;23.314;2023-09-07T14:02:45;9.98;;;5.88;;
70126;SDS011;57491;42.694;23.314;2023-09-07T14:05:13;9.52;;;5.57;;
70126;SDS011;57491;42.694;23.314;2023-09-07T14:07:40;7.60;;;5.45;;
70126;SDS011;57491;42.694;23.314;2023-09-07T14:10:07;11.98;;;6.75;;
70126;SDS011;57491;42.694;23.314;2023-09-07T14:12:35;13.25;;;6.28;;
70126;SDS011;57491;42.694;23.314;2023-09-07T14:15:02;8.32;;;6.30;;
70126;SDS011;57491;42.694;23.314;2023-09-07T14:17:29;12.38;;;6.07;;
70126;SDS011;57491;42.694;23.314;2023-09-07T14:19:56;7.88;;;6.10;;
70126;SDS011;57491;42.694;23.314;2023-09-07T14:22:25;8.82;;;6.55;;
70126;SDS011;57491;42.694;23.314;2023-09-07T14:24:52;7.88;;;6.25;;
70126;SDS011;57491;42.694;23.314;2023-09-07T14:27:19;7.72;;;5.78;;
70126;SDS011;57491;42.694;23.314;2023-09-07T14:29:46;10.10;;;6.25;;
70126;SDS011;57491;42.694;23.314;2023-09-07T14:32:13;9.73;;;6.13;;
70126;SDS011;57491;42.694;23.314;2023-09-07T14:34:40;10.13;;;5.75;;
70126;SDS011;57491;42.694;23.314;2023-09-07T14:37:07;6.63;;;5.78;;
70126;SDS011;57491;42.694;23.314;2023-09-07T14:39:36;8.57;;;6.18;;
70126;SDS011;57491;42.694;23.314;2023-09-07T14:42:04;8.88;;;5.65;;
70126;SDS011;57491;42.694;23.314;2023-09-07T14:44:36;9.93;;;5.88;;
70126;SDS011;57491;42.694;23.314;2023-09-07T14:47:04;8.23;;;5.75;;
70126;SDS011;57491;42.694;23.314;2023-09-07T14:49:33;6.65;;;5.25;;
70126;SDS011;57491;42.694;23.314;2023-09-07T14:52:00;8.65;;;5.95;;
70126;SDS011;57491;42.694;23.314;2023-09-07T14:54:27;8.13;;;5.50;;
70126;SDS011;57491;42.694;23.314;2023-09-07T14:56:56;7.05;;;6.03;;
70126;SDS011;57491;42.694;23.314;2023-09-07T14:59:23;9.63;;;6.25;;
70126;SDS011;57491;42.694;23.314;2023-09-07T15:01:50;11.95;;;7.65;;
70126;SDS011;57491;42.694;23.314;2023-09-07T15:06:44;9.80;;;6.30;;
70126;SDS011;57491;42.694;23.314;2023-09-07T15:09:11;7.78;;;6.00;;